createdAt,value
2023-04-24T00:05:03.745Z,99786.84
2023-04-24T00:10:07.499Z,99758.91
2023-04-24T00:15:11.733Z,99770.06
2023-04-24T00:20:16.567Z,99784.53
2023-04-24T00:25:19.238Z,99784.13
2023-04-24T00:30:21.780Z,99783.31
2023-04-24T00:35:25.991Z,99789.94
2023-04-24T00:40:29.017Z,99801.13
2023-04-24T00:45:32.186Z,99785.44
2023-04-24T00:50:37.821Z,99780.63
2023-04-24T00:55:41.096Z,99785.03
2023-04-24T01:00:43.710Z,99786.91
2023-04-24T01:05:48.113Z,99784.34
2023-04-24T01:10:53.428Z,99782.47
2023-04-24T01:15:56.085Z,99786.50
2023-04-24T01:21:01.526Z,99778.59
2023-04-24T01:26:06.152Z,99785.03
2023-04-24T01:31:09.003Z,99787.50
2023-04-24T01:36:13.065Z,99790.03
2023-04-24T01:41:17.491Z,99799.28
2023-04-24T01:46:21.455Z,99786.22
2023-04-24T01:51:24.041Z,99781.72
2023-04-24T01:56:31.014Z,99784.78
2023-04-24T02:01:38.024Z,99687.53
2023-04-24T02:06:41.400Z,99785.78
2023-04-24T02:11:45.294Z,99786.66
2023-04-24T02:16:48.274Z,99789.69
2023-04-24T02:21:51.259Z,99795.44
2023-04-24T02:26:55.692Z,99785.66
2023-04-24T02:31:58.348Z,99789.66
2023-04-24T02:37:01.290Z,99787.31
2023-04-24T02:42:05.475Z,99784.72
2023-04-24T02:47:08.491Z,99786.53
2023-04-24T02:52:11.587Z,99782.09
2023-04-24T02:57:16.082Z,99793.06
2023-04-24T03:02:19.250Z,99798.78
2023-04-24T03:07:22.092Z,99803.59
2023-04-24T03:12:26.351Z,99803.59
2023-04-24T03:17:28.949Z,99807.59
2023-04-24T03:22:33.415Z,99816.38
2023-04-24T03:27:38.263Z,99809.94
2023-04-24T03:32:47.877Z,99818.34
2023-04-24T03:37:56.011Z,99815.81
2023-04-24T03:43:18.550Z,99804.75
2023-04-24T03:48:22.228Z,99809.59
2023-04-24T03:53:25.534Z,99813.03
2023-04-24T03:58:29.697Z,99817.03
2023-04-24T04:03:33.185Z,99815.06
2023-04-24T04:08:36.230Z,99816.25
2023-04-24T04:13:40.946Z,99828.16
2023-04-24T04:18:44.060Z,99822.84
2023-04-24T04:23:46.874Z,99821.31
2023-04-24T04:29:02.214Z,99821.81
2023-04-24T04:34:05.760Z,99823.63
2023-04-24T04:39:10.161Z,99824.16
2023-04-24T04:44:39.431Z,99837.16
2023-04-24T04:49:44.329Z,99833.31
2023-04-24T04:54:54.560Z,99846.94
2023-04-24T05:00:01.320Z,99841.38
2023-04-24T05:05:17.977Z,99843.66
2023-04-24T05:10:21.207Z,99855.44
2023-04-24T05:15:27.382Z,99855.06
2023-04-24T05:20:30.188Z,99855.69
2023-04-24T05:25:36.199Z,99839.28
2023-04-24T05:30:45.468Z,99856.22
2023-04-24T05:35:50.076Z,99852.22
2023-04-24T05:40:54.048Z,99853.53
2023-04-24T05:45:58.050Z,99852.56
2023-04-24T05:51:00.671Z,99855.75
2023-04-24T05:56:03.282Z,99863.13
2023-04-24T06:01:07.785Z,99860.09
2023-04-24T06:06:10.885Z,99855.19
2023-04-24T06:11:13.676Z,99860.56
2023-04-24T06:16:17.752Z,99867.53
2023-04-24T06:21:26.709Z,99856.47
2023-04-24T06:26:29.550Z,99781.81
2023-04-24T06:31:37.738Z,99863.31
2023-04-24T06:36:40.544Z,99866.94
2023-04-24T06:41:43.155Z,99851.59
2023-04-24T06:46:56.302Z,99867.97
2023-04-24T06:51:58.842Z,99863.13
2023-04-24T06:57:03.473Z,99858.69
2023-04-24T07:02:07.552Z,99862.44
2023-04-24T07:07:13.854Z,99867.34
2023-04-24T07:12:17.850Z,99869.69
2023-04-24T07:17:22.016Z,99874.97
2023-04-24T07:22:24.916Z,99867.75
2023-04-24T07:27:27.679Z,99865.84
2023-04-24T07:32:31.712Z,99806.94
2023-04-24T07:37:34.364Z,99874.25
2023-04-24T07:42:40.008Z,99877.84
2023-04-24T07:47:46.555Z,99885.81
2023-04-24T07:52:49.182Z,99892.03
2023-04-24T07:57:51.847Z,99908.88
2023-04-24T08:02:55.868Z,99899.97
2023-04-24T08:07:58.522Z,99924.72
2023-04-24T08:13:01.069Z,99916.94
2023-04-24T08:18:05.843Z,99949.81
2023-04-24T08:23:08.458Z,99966.06
2023-04-24T08:28:11.615Z,99979.28
2023-04-24T08:33:15.576Z,99986.41
2023-04-24T08:38:18.283Z,100002.53
2023-04-24T08:43:23.892Z,100014.78
2023-04-24T08:48:31.693Z,100022.13
2023-04-24T08:53:35.368Z,100045.53
2023-04-24T08:58:38.423Z,99980.53
2023-04-24T09:03:43.109Z,100071.03
2023-04-24T09:08:47.197Z,100055.50
2023-04-24T09:13:50.534Z,100120.22
2023-04-24T09:18:54.910Z,100131.19
2023-04-24T09:24:01.246Z,100059.75
2023-04-24T09:29:05.906Z,100165.94
2023-04-24T09:34:09.978Z,100178.75
2023-04-24T09:39:16.215Z,100196.06
2023-04-24T09:44:21.760Z,100203.63
2023-04-24T09:49:27.538Z,100216.50
2023-04-24T09:54:30.742Z,100221.00
2023-04-24T09:59:36.076Z,100244.22
2023-04-24T10:04:41.384Z,100246.63
2023-04-24T10:09:44.674Z,100265.78
2023-04-24T10:14:48.676Z,100281.41
2023-04-24T10:19:53.809Z,100279.28
2023-04-24T10:24:56.592Z,100290.44
2023-04-24T10:29:59.766Z,100286.09
2023-04-24T10:35:03.775Z,100301.72
2023-04-24T10:40:09.875Z,100311.59
2023-04-24T10:45:19.394Z,100311.97
2023-04-24T10:50:23.399Z,100321.09
2023-04-24T10:55:46.685Z,100313.19
2023-04-24T11:00:58.953Z,100323.34
2023-04-24T11:06:04.558Z,100342.78
2023-04-24T11:11:13.032Z,100339.25
2023-04-24T11:16:17.474Z,100367.66
2023-04-24T11:21:21.984Z,100373.38
2023-04-24T11:26:25.613Z,100372.03
2023-04-24T11:31:38.760Z,100378.53
2023-04-24T11:36:45.105Z,100364.28
2023-04-24T11:41:48.710Z,100355.41
2023-04-24T11:46:51.261Z,100398.50
2023-04-24T11:52:00.956Z,100408.00
2023-04-24T11:57:06.819Z,100420.72
2023-04-24T12:02:10.687Z,100420.53
2023-04-24T12:07:14.649Z,100441.59
2023-04-24T12:12:18.888Z,100455.28
2023-04-24T12:17:29.014Z,100458.13
2023-04-24T12:22:47.433Z,100468.34
2023-04-24T12:27:55.663Z,100474.50
2023-04-24T12:33:00.550Z,100466.88
2023-04-24T12:38:11.656Z,100469.25
2023-04-24T12:43:18.575Z,100466.44
2023-04-24T12:48:22.451Z,100483.63
2023-04-24T12:53:31.181Z,100473.13
2023-04-24T12:58:34.606Z,100495.50
2023-04-24T13:03:37.466Z,100506.50
2023-04-24T13:08:41.451Z,100511.63
2023-04-24T13:13:44.239Z,100514.28
2023-04-24T13:18:46.875Z,100513.22
2023-04-24T13:23:50.865Z,100489.75
2023-04-24T13:28:53.512Z,100519.25
2023-04-24T13:33:56.158Z,100523.03
2023-04-24T13:39:00.288Z,100517.81
2023-04-24T13:44:03.153Z,100513.75
2023-04-24T13:49:05.910Z,100515.91
2023-04-24T13:54:09.794Z,100506.84
2023-04-24T13:59:14.460Z,100510.63
2023-04-24T14:04:17.094Z,100505.47
2023-04-24T14:09:22.306Z,100514.09
2023-04-24T14:14:25.381Z,100517.63
2023-04-24T14:19:28.475Z,100534.97
2023-04-24T14:24:32.412Z,100529.44
2023-04-24T14:29:35.442Z,100454.13
2023-04-24T14:34:38.241Z,100551.97
2023-04-24T14:39:44.505Z,100553.25
2023-04-24T14:44:50.498Z,100565.53
2023-04-24T14:49:53.249Z,100549.34
2023-04-24T14:54:57.146Z,100550.69
2023-04-24T14:59:59.787Z,100564.09
2023-04-24T15:05:02.569Z,100568.97
2023-04-24T15:10:07.799Z,100569.81
2023-04-24T15:15:11.200Z,100575.25
2023-04-24T15:20:13.778Z,100568.16
2023-04-24T15:25:17.744Z,100582.78
2023-04-24T15:30:20.316Z,100585.56
2023-04-24T15:35:22.923Z,100582.38
2023-04-24T15:40:26.969Z,100584.47
2023-04-24T15:45:29.634Z,100580.88
2023-04-24T15:50:32.268Z,100530.06
2023-04-24T15:55:37.474Z,100547.31
2023-04-24T16:00:40.803Z,100580.78
2023-04-24T16:05:43.396Z,100573.81
2023-04-24T16:10:47.298Z,100582.16
2023-04-24T16:15:50.041Z,100596.75
2023-04-24T16:20:52.661Z,100575.38
2023-04-24T16:25:57.103Z,100589.50
2023-04-24T16:31:00.398Z,100597.38
2023-04-24T16:36:04.220Z,100628.59
2023-04-24T16:41:10.349Z,100621.19
2023-04-24T16:46:12.930Z,100546.47
2023-04-24T16:51:15.563Z,100611.88
2023-04-24T16:56:19.816Z,100624.91
2023-04-24T17:01:22.412Z,100604.16
2023-04-24T17:06:25.192Z,100589.34
2023-04-24T17:11:31.248Z,100620.69
2023-04-24T17:16:34.061Z,100619.63
2023-04-24T17:21:37.327Z,100621.72
2023-04-24T17:26:41.236Z,100619.63
2023-04-24T17:31:43.886Z,100624.16
2023-04-24T17:36:46.557Z,100616.31
2023-04-24T17:41:50.599Z,100627.00
2023-04-24T17:46:53.181Z,100622.91
2023-04-24T17:51:55.709Z,100636.03
2023-04-24T17:56:59.631Z,100640.06
2023-04-24T18:02:02.175Z,100632.53
2023-04-24T18:07:04.778Z,100645.78
2023-04-24T18:12:09.085Z,100640.81
2023-04-24T18:17:11.632Z,100544.16
2023-04-24T18:22:14.323Z,100647.25
2023-04-24T18:27:19.042Z,100646.50
2023-04-24T18:32:21.677Z,100642.91
2023-04-24T18:37:24.826Z,100655.59
2023-04-24T18:42:28.795Z,100664.41
2023-04-24T18:47:31.912Z,100671.38
2023-04-24T18:52:34.913Z,100600.41
2023-04-24T18:57:38.857Z,100673.47
2023-04-24T19:02:41.997Z,100674.53
2023-04-24T19:07:44.874Z,100692.94
2023-04-24T19:12:49.421Z,100697.16
2023-04-24T19:17:52.523Z,100692.09
2023-04-24T19:22:55.212Z,100698.44
2023-04-24T19:27:59.191Z,100703.84
2023-04-24T19:33:02.395Z,100714.22
2023-04-24T19:38:05.529Z,100716.84
2023-04-24T19:43:09.801Z,100710.47
2023-04-24T19:48:12.583Z,100725.59
2023-04-24T19:53:15.741Z,100701.38
2023-04-24T19:58:19.702Z,100730.00
2023-04-24T20:03:32.891Z,100729.16
2023-04-24T20:08:39.048Z,100728.59
2023-04-24T20:13:42.970Z,100732.47
2023-04-24T20:18:46.021Z,100727.47
2023-04-24T20:23:49.008Z,100731.84
2023-04-24T20:28:53.231Z,100729.16
2023-04-24T20:33:55.926Z,100724.94
2023-04-24T20:38:59.492Z,100730.47
2023-04-24T20:44:04.181Z,100727.38
2023-04-24T20:49:07.543Z,100712.84
2023-04-24T20:54:10.118Z,100698.63
2023-04-24T20:59:14.112Z,100719.56
2023-04-24T21:04:16.676Z,100725.69
2023-04-24T21:09:19.779Z,100727.59
2023-04-24T21:14:23.795Z,100731.66
2023-04-24T21:19:26.358Z,100731.81
2023-04-24T21:24:29.068Z,100726.53
2023-04-24T21:29:33.547Z,100713.81
2023-04-24T21:34:36.066Z,100676.97
2023-04-24T21:39:38.590Z,100728.69
2023-04-24T21:44:42.627Z,100722.75
2023-04-24T21:49:45.179Z,100669.94
2023-04-24T21:54:47.811Z,100717.09
2023-04-24T21:59:52.438Z,100706.94
2023-04-24T22:04:56.250Z,100717.84
2023-04-24T22:09:59.039Z,100717.09
2023-04-24T22:15:03.861Z,100726.25
2023-04-24T22:20:07.832Z,100722.75
2023-04-24T22:25:11.214Z,100729.06
2023-04-24T22:30:15.352Z,100738.00
2023-04-24T22:35:19.286Z,100727.66
2023-04-24T22:40:21.862Z,100729.56
2023-04-24T22:45:26.089Z,100725.09
2023-04-24T22:50:29.026Z,100723.47
2023-04-24T22:55:32.030Z,100723.66
2023-04-24T23:00:36.401Z,100724.22
2023-04-24T23:05:39.005Z,100725.38
2023-04-24T23:10:42.033Z,100726.13
2023-04-24T23:15:46.319Z,100726.31
2023-04-24T23:20:48.996Z,100731.41
2023-04-24T23:25:51.594Z,100730.50
2023-04-24T23:30:55.863Z,100732.44
2023-04-24T23:35:58.979Z,100735.91
2023-04-24T23:41:01.925Z,100738.38
2023-04-24T23:46:06.169Z,100728.34
2023-04-24T23:51:08.770Z,100729.97
2023-04-24T23:56:11.312Z,100712.16
